Main page
METAR-TAF:

METAR-TAF

Airports :

Barcelona–El Prat Airport

Barcelona, Spain

latitude: 41-17N, longitude: 002-04E, elevation: 4 m

Current weather observation

The report was made 31 minutes ago, at 23:00 UTC
Wind 6 kt from the West
Temperature 24°C
Humidity 78%
Pressure 1017 hPa
Visibility 10 km or more
no clouds below 1500 m and no cumulonimbus

METAR: LEBL 052300Z 26006KT CAVOK 24/20 Q1017 NOSIG

Time: 01:31 (23:31 UTC)

Forecast

The report was made 6 hours and 31 minutes ago, at 17:00 UTC
Forecast valid from 05 at 18 UTC to 06 at 18 UTC
Wind 12 kt from the Southwest
Visibility 10 km or more
Few clouds at a height of 3000 ft
Becoming
from 05 at 22 UTC to 05 at 24 UTC
Wind 3 kt from variable directions
Becoming
from 06 at 08 UTC to 06 at 10 UTC
Wind 7 kt from the South
Becoming
from 06 at 14 UTC to 06 at 16 UTC
Wind 7 kt from the East/Southeast

TAF: LEBL 051700Z 0518/0618 22012KT 9999 FEW030 TX29/0612Z TN22/0606Z BECMG 0522/0524 VRB03KT BECMG 0608/0610 18007KT BECMG 0614/0616 12007KT

Weather observations and forecasts of more than 4000 airports (METAR and TAF reports).

The available stations are represented by yellow and red dots on the map.

Hover mouse over dot to see the name of the station.

Then click to see weather observations and forecasts.

To change the map : click on the green buttons with a black cross to zoom in, on the green button with a dash to zoom out, or on the green arrows for adjacent maps.


METAR-TAF: